sensor_id;sensor_type;location;lat;lon;timestamp;temperature;humidity
41939;DHT22;23057;48.554;14.454;2023-10-19T00:02:13;4.50;99.90
41939;DHT22;23057;48.554;14.454;2023-10-19T00:04:45;4.50;99.90
41939;DHT22;23057;48.554;14.454;2023-10-19T00:07:16;4.60;99.90
41939;DHT22;23057;48.554;14.454;2023-10-19T00:09:47;4.60;99.90
41939;DHT22;23057;48.554;14.454;2023-10-19T00:12:22;4.70;99.90
41939;DHT22;23057;48.554;14.454;2023-10-19T00:14:53;4.70;99.90
41939;DHT22;23057;48.554;14.454;2023-10-19T00:17:24;4.70;99.90
41939;DHT22;23057;48.554;14.454;2023-10-19T00:19:57;4.70;99.90
41939;DHT22;23057;48.554;14.454;2023-10-19T00:22:40;4.70;99.90
41939;DHT22;23057;48.554;14.454;2023-10-19T00:25:11;4.60;99.90
41939;DHT22;23057;48.554;14.454;2023-10-19T00:27:43;4.60;99.90
41939;DHT22;23057;48.554;14.454;2023-10-19T00:30:18;4.60;99.90
41939;DHT22;23057;48.554;14.454;2023-10-19T00:32:53;4.70;99.90
41939;DHT22;23057;48.554;14.454;2023-10-19T00:35:25;4.70;99.90
41939;DHT22;23057;48.554;14.454;2023-10-19T00:38:04;4.70;99.90
41939;DHT22;23057;48.554;14.454;2023-10-19T00:40:54;4.80;99.90
41939;DHT22;23057;48.554;14.454;2023-10-19T00:43:43;4.80;99.90
41939;DHT22;23057;48.554;14.454;2023-10-19T00:46:15;4.80;99.90
41939;DHT22;23057;48.554;14.454;2023-10-19T00:48:56;4.80;99.90
41939;DHT22;23057;48.554;14.454;2023-10-19T00:51:35;4.70;99.90
41939;DHT22;23057;48.554;14.454;2023-10-19T00:54:35;4.60;99.90
41939;DHT22;23057;48.554;14.454;2023-10-19T00:57:21;4.70;99.90
41939;DHT22;23057;48.554;14.454;2023-10-19T01:00:03;4.80;99.90
41939;DHT22;23057;48.554;14.454;2023-10-19T01:02:43;4.80;99.90
41939;DHT22;23057;48.554;14.454;2023-10-19T01:05:16;4.90;99.90
41939;DHT22;23057;48.554;14.454;2023-10-19T01:07:51;4.90;99.90
41939;DHT22;23057;48.554;14.454;2023-10-19T01:10:32;4.90;99.90
41939;DHT22;23057;48.554;14.454;2023-10-19T01:13:03;4.90;99.90
41939;DHT22;23057;48.554;14.454;2023-10-19T01:15:36;4.90;99.90
41939;DHT22;23057;48.554;14.454;2023-10-19T01:18:07;4.90;99.90
41939;DHT22;23057;48.554;14.454;2023-10-19T01:20:41;4.90;99.90
41939;DHT22;23057;48.554;14.454;2023-10-19T01:23:25;4.90;99.90
41939;DHT22;23057;48.554;14.454;2023-10-19T01:25:59;4.90;99.90
41939;DHT22;23057;48.554;14.454;2023-10-19T01:28:32;5.00;99.90
41939;DHT22;23057;48.554;14.454;2023-10-19T01:31:16;5.00;99.90
41939;DHT22;23057;48.554;14.454;2023-10-19T01:34:01;4.90;99.90
41939;DHT22;23057;48.554;14.454;2023-10-19T01:36:35;4.90;99.90
41939;DHT22;23057;48.554;14.454;2023-10-19T01:39:15;4.80;99.90
41939;DHT22;23057;48.554;14.454;2023-10-19T01:41:49;4.80;99.90
41939;DHT22;23057;48.554;14.454;2023-10-19T01:44:21;4.80;99.90
41939;DHT22;23057;48.554;14.454;2023-10-19T01:46:51;4.90;99.90
41939;DHT22;23057;48.554;14.454;2023-10-19T01:49:23;4.90;99.90
41939;DHT22;23057;48.554;14.454;2023-10-19T01:51:56;4.90;99.90
41939;DHT22;23057;48.554;14.454;2023-10-19T01:54:27;4.90;99.90
41939;DHT22;23057;48.554;14.454;2023-10-19T01:56:58;4.90;99.90
41939;DHT22;23057;48.554;14.454;2023-10-19T01:59:29;4.80;99.90
41939;DHT22;23057;48.554;14.454;2023-10-19T02:02:01;4.80;99.90
41939;DHT22;23057;48.554;14.454;2023-10-19T02:04:32;4.80;99.90
41939;DHT22;23057;48.554;14.454;2023-10-19T02:07:05;4.80;99.90
41939;DHT22;23057;48.554;14.454;2023-10-19T02:09:43;4.80;99.90
41939;DHT22;23057;48.554;14.454;2023-10-19T02:12:13;4.70;99.90
41939;DHT22;23057;48.554;14.454;2023-10-19T02:14:44;4.70;99.90
41939;DHT22;23057;48.554;14.454;2023-10-19T02:17:16;4.70;99.90
41939;DHT22;23057;48.554;14.454;2023-10-19T02:19:47;4.60;99.90
41939;DHT22;23057;48.554;14.454;2023-10-19T02:22:18;4.60;99.90
41939;DHT22;23057;48.554;14.454;2023-10-19T02:24:49;4.60;99.90
41939;DHT22;23057;48.554;14.454;2023-10-19T02:27:19;4.60;99.90
41939;DHT22;23057;48.554;14.454;2023-10-19T02:29:52;4.60;99.90
41939;DHT22;23057;48.554;14.454;2023-10-19T02:32:23;4.60;99.90
41939;DHT22;23057;48.554;14.454;2023-10-19T02:34:54;4.30;99.90
41939;DHT22;23057;48.554;14.454;2023-10-19T02:37:27;4.00;99.90
41939;DHT22;23057;48.554;14.454;2023-10-19T02:39:58;3.90;99.90
41939;DHT22;23057;48.554;14.454;2023-10-19T02:42:30;4.00;99.90
41939;DHT22;23057;48.554;14.454;2023-10-19T02:45:01;4.00;99.90
41939;DHT22;23057;48.554;14.454;2023-10-19T02:47:35;4.10;99.90
41939;DHT22;23057;48.554;14.454;2023-10-19T02:50:06;4.20;99.90
41939;DHT22;23057;48.554;14.454;2023-10-19T02:52:44;4.20;99.90
41939;DHT22;23057;48.554;14.454;2023-10-19T02:55:14;4.20;99.90
41939;DHT22;23057;48.554;14.454;2023-10-19T02:57:49;4.20;99.90
41939;DHT22;23057;48.554;14.454;2023-10-19T03:00:21;4.20;99.90
41939;DHT22;23057;48.554;14.454;2023-10-19T03:02:51;4.10;99.90
41939;DHT22;23057;48.554;14.454;2023-10-19T03:05:23;4.20;99.90
41939;DHT22;23057;48.554;14.454;2023-10-19T03:07:56;4.20;99.90
41939;DHT22;23057;48.554;14.454;2023-10-19T03:10:26;4.10;99.90
41939;DHT22;23057;48.554;14.454;2023-10-19T03:13:12;4.10;99.90
41939;DHT22;23057;48.554;14.454;2023-10-19T03:15:45;4.10;99.90
41939;DHT22;23057;48.554;14.454;2023-10-19T03:18:16;4.10;99.90
41939;DHT22;23057;48.554;14.454;2023-10-19T03:20:47;4.10;99.90
41939;DHT22;23057;48.554;14.454;2023-10-19T03:23:21;4.10;99.90
41939;DHT22;23057;48.554;14.454;2023-10-19T03:25:56;4.00;99.90
41939;DHT22;23057;48.554;14.454;2023-10-19T03:28:45;4.00;99.90
41939;DHT22;23057;48.554;14.454;2023-10-19T03:31:16;4.00;99.90
41939;DHT22;23057;48.554;14.454;2023-10-19T03:33:52;4.00;99.90
41939;DHT22;23057;48.554;14.454;2023-10-19T03:36:27;4.00;99.90
41939;DHT22;23057;48.554;14.454;2023-10-19T03:38:58;3.90;99.90
41939;DHT22;23057;48.554;14.454;2023-10-19T03:41:41;3.80;99.90
41939;DHT22;23057;48.554;14.454;2023-10-19T03:44:16;3.70;99.90
41939;DHT22;23057;48.554;14.454;2023-10-19T03:46:55;3.70;99.90
41939;DHT22;23057;48.554;14.454;2023-10-19T03:49:34;3.70;99.90
41939;DHT22;23057;48.554;14.454;2023-10-19T03:52:08;3.70;99.90
41939;DHT22;23057;48.554;14.454;2023-10-19T03:54:39;3.70;99.90
41939;DHT22;23057;48.554;14.454;2023-10-19T03:57:13;3.60;99.90
41939;DHT22;23057;48.554;14.454;2023-10-19T03:59:49;3.20;99.90
41939;DHT22;23057;48.554;14.454;2023-10-19T04:02:27;2.90;99.90
41939;DHT22;23057;48.554;14.454;2023-10-19T04:04:59;3.00;99.90
41939;DHT22;23057;48.554;14.454;2023-10-19T04:07:32;3.20;99.90
41939;DHT22;23057;48.554;14.454;2023-10-19T04:10:03;3.30;99.90
41939;DHT22;23057;48.554;14.454;2023-10-19T04:12:40;3.30;99.90
41939;DHT22;23057;48.554;14.454;2023-10-19T04:15:12;3.40;99.90
41939;DHT22;23057;48.554;14.454;2023-10-19T04:17:47;3.30;99.90
41939;DHT22;23057;48.554;14.454;2023-10-19T04:20:19;3.40;99.90
41939;DHT22;23057;48.554;14.454;2023-10-19T04:22:50;3.40;99.90
41939;DHT22;23057;48.554;14.454;2023-10-19T04:25:21;3.50;99.90
41939;DHT22;23057;48.554;14.454;2023-10-19T04:27:59;3.50;99.90
41939;DHT22;23057;48.554;14.454;2023-10-19T04:30:31;3.40;99.90
41939;DHT22;23057;48.554;14.454;2023-10-19T04:33:03;3.40;99.90
41939;DHT22;23057;48.554;14.454;2023-10-19T04:35:39;3.50;99.90
41939;DHT22;23057;48.554;14.454;2023-10-19T04:38:11;3.50;99.90
41939;DHT22;23057;48.554;14.454;2023-10-19T04:40:42;3.40;99.90
41939;DHT22;23057;48.554;14.454;2023-10-19T04:43:13;3.40;99.90
41939;DHT22;23057;48.554;14.454;2023-10-19T04:45:44;3.30;99.90
41939;DHT22;23057;48.554;14.454;2023-10-19T04:48:15;3.30;99.90
41939;DHT22;23057;48.554;14.454;2023-10-19T04:50:45;3.30;99.90
41939;DHT22;23057;48.554;14.454;2023-10-19T04:53:17;3.30;99.90
41939;DHT22;23057;48.554;14.454;2023-10-19T04:55:47;3.40;99.90
41939;DHT22;23057;48.554;14.454;2023-10-19T04:58:18;3.40;99.90
41939;DHT22;23057;48.554;14.454;2023-10-19T05:00:49;3.30;99.90
41939;DHT22;23057;48.554;14.454;2023-10-19T05:03:20;3.20;99.90
41939;DHT22;23057;48.554;14.454;2023-10-19T05:05:51;3.10;99.90
41939;DHT22;23057;48.554;14.454;2023-10-19T05:08:24;3.10;99.90
41939;DHT22;23057;48.554;14.454;2023-10-19T05:10:56;3.10;99.90
41939;DHT22;23057;48.554;14.454;2023-10-19T05:13:31;3.10;99.90
41939;DHT22;23057;48.554;14.454;2023-10-19T05:16:03;3.10;99.90
41939;DHT22;23057;48.554;14.454;2023-10-19T05:18:34;3.20;99.90
41939;DHT22;23057;48.554;14.454;2023-10-19T05:21:05;3.30;99.90
41939;DHT22;23057;48.554;14.454;2023-10-19T05:23:36;3.20;99.90
41939;DHT22;23057;48.554;14.454;2023-10-19T05:26:06;3.20;99.90
41939;DHT22;23057;48.554;14.454;2023-10-19T05:28:37;3.10;99.90
41939;DHT22;23057;48.554;14.454;2023-10-19T05:31:08;3.10;99.90
41939;DHT22;23057;48.554;14.454;2023-10-19T05:33:39;3.00;99.90
41939;DHT22;23057;48.554;14.454;2023-10-19T05:36:10;3.00;99.90
41939;DHT22;23057;48.554;14.454;2023-10-19T05:38:40;3.00;99.90
41939;DHT22;23057;48.554;14.454;2023-10-19T05:41:11;3.30;99.90
41939;DHT22;23057;48.554;14.454;2023-10-19T05:43:42;3.60;99.90
41939;DHT22;23057;48.554;14.454;2023-10-19T05:46:13;4.30;99.90
41939;DHT22;23057;48.554;14.454;2023-10-19T05:48:48;5.20;99.90
41939;DHT22;23057;48.554;14.454;2023-10-19T05:51:19;5.80;99.90
41939;DHT22;23057;48.554;14.454;2023-10-19T05:53:52;5.80;99.90
41939;DHT22;23057;48.554;14.454;2023-10-19T05:56:24;5.90;99.90
41939;DHT22;23057;48.554;14.454;2023-10-19T05:58:55;6.00;99.90
41939;DHT22;23057;48.554;14.454;2023-10-19T06:01:26;5.80;99.90
41939;DHT22;23057;48.554;14.454;2023-10-19T06:03:57;5.80;99.90
41939;DHT22;23057;48.554;14.454;2023-10-19T06:06:28;5.80;99.90
41939;DHT22;23057;48.554;14.454;2023-10-19T06:08:59;5.70;99.90
41939;DHT22;23057;48.554;14.454;2023-10-19T06:11:31;5.60;99.90
41939;DHT22;23057;48.554;14.454;2023-10-19T06:14:05;5.70;99.90
41939;DHT22;23057;48.554;14.454;2023-10-19T06:16:37;6.00;99.90
41939;DHT22;23057;48.554;14.454;2023-10-19T06:19:08;6.40;99.90
41939;DHT22;23057;48.554;14.454;2023-10-19T06:21:39;6.60;99.90
41939;DHT22;23057;48.554;14.454;2023-10-19T06:24:10;6.80;99.90
41939;DHT22;23057;48.554;14.454;2023-10-19T06:26:44;6.70;99.90
41939;DHT22;23057;48.554;14.454;2023-10-19T06:29:15;6.70;99.90
41939;DHT22;23057;48.554;14.454;2023-10-19T06:31:46;6.80;99.90
41939;DHT22;23057;48.554;14.454;2023-10-19T06:34:17;7.00;99.90
41939;DHT22;23057;48.554;14.454;2023-10-19T06:36:49;7.10;99.90
41939;DHT22;23057;48.554;14.454;2023-10-19T06:39:21;6.90;99.90
41939;DHT22;23057;48.554;14.454;2023-10-19T06:41:52;7.00;99.90
41939;DHT22;23057;48.554;14.454;2023-10-19T06:44:23;7.10;99.90
41939;DHT22;23057;48.554;14.454;2023-10-19T06:46:54;7.00;99.90
41939;DHT22;23057;48.554;14.454;2023-10-19T06:49:25;6.80;99.90
41939;DHT22;23057;48.554;14.454;2023-10-19T06:51:56;6.60;99.90
41939;DHT22;23057;48.554;14.454;2023-10-19T06:54:27;6.60;99.90
41939;DHT22;23057;48.554;14.454;2023-10-19T06:56:59;6.80;99.90
41939;DHT22;23057;48.554;14.454;2023-10-19T06:59:33;7.10;99.90
41939;DHT22;23057;48.554;14.454;2023-10-19T07:02:06;7.30;99.90
41939;DHT22;23057;48.554;14.454;2023-10-19T07:04:38;7.30;99.90
41939;DHT22;23057;48.554;14.454;2023-10-19T07:07:09;7.30;99.90
41939;DHT22;23057;48.554;14.454;2023-10-19T07:09:39;7.60;99.90
41939;DHT22;23057;48.554;14.454;2023-10-19T07:12:11;8.10;99.90
41939;DHT22;23057;48.554;14.454;2023-10-19T07:14:42;8.30;99.90
41939;DHT22;23057;48.554;14.454;2023-10-19T07:17:13;8.60;99.90
41939;DHT22;23057;48.554;14.454;2023-10-19T07:19:43;8.80;99.90
41939;DHT22;23057;48.554;14.454;2023-10-19T07:22:15;8.90;99.90
41939;DHT22;23057;48.554;14.454;2023-10-19T07:24:47;9.00;99.90
41939;DHT22;23057;48.554;14.454;2023-10-19T07:27:18;9.30;1.00
41939;DHT22;23057;48.554;14.454;2023-10-19T07:29:49;9.40;99.90
41939;DHT22;23057;48.554;14.454;2023-10-19T07:32:19;9.60;99.90
41939;DHT22;23057;48.554;14.454;2023-10-19T07:34:51;9.80;1.00
41939;DHT22;23057;48.554;14.454;2023-10-19T07:37:22;9.30;99.90
41939;DHT22;23057;48.554;14.454;2023-10-19T07:39:53;8.90;99.90
41939;DHT22;23057;48.554;14.454;2023-10-19T07:42:27;8.90;99.90
41939;DHT22;23057;48.554;14.454;2023-10-19T07:44:58;9.10;99.90
41939;DHT22;23057;48.554;14.454;2023-10-19T07:47:30;9.60;99.90
41939;DHT22;23057;48.554;14.454;2023-10-19T07:50:02;9.80;1.00
41939;DHT22;23057;48.554;14.454;2023-10-19T07:52:34;10.00;97.40
41939;DHT22;23057;48.554;14.454;2023-10-19T07:55:06;10.10;99.90
41939;DHT22;23057;48.554;14.454;2023-10-19T07:57:38;10.30;99.90
41939;DHT22;23057;48.554;14.454;2023-10-19T08:00:12;10.30;1.00
41939;DHT22;23057;48.554;14.454;2023-10-19T08:02:47;10.20;1.00
41939;DHT22;23057;48.554;14.454;2023-10-19T08:05:18;10.00;99.90
41939;DHT22;23057;48.554;14.454;2023-10-19T08:07:49;10.00;99.90
41939;DHT22;23057;48.554;14.454;2023-10-19T08:10:20;10.00;99.90
41939;DHT22;23057;48.554;14.454;2023-10-19T08:12:51;10.10;1.00
41939;DHT22;23057;48.554;14.454;2023-10-19T08:15:23;9.80;99.90
41939;DHT22;23057;48.554;14.454;2023-10-19T08:17:53;9.50;99.90
41939;DHT22;23057;48.554;14.454;2023-10-19T08:20:25;9.60;99.90
41939;DHT22;23057;48.554;14.454;2023-10-19T08:23:02;9.60;99.90
41939;DHT22;23057;48.554;14.454;2023-10-19T08:25:33;9.70;1.00
41939;DHT22;23057;48.554;14.454;2023-10-19T08:28:04;9.80;1.00
41939;DHT22;23057;48.554;14.454;2023-10-19T08:30:37;9.90;1.00
41939;DHT22;23057;48.554;14.454;2023-10-19T08:33:07;10.10;1.00
41939;DHT22;23057;48.554;14.454;2023-10-19T08:35:38;10.30;99.90
41939;DHT22;23057;48.554;14.454;2023-10-19T08:38:09;10.50;99.90
41939;DHT22;23057;48.554;14.454;2023-10-19T08:40:43;10.70;99.90
41939;DHT22;23057;48.554;14.454;2023-10-19T08:43:14;10.80;1.00
41939;DHT22;23057;48.554;14.454;2023-10-19T08:45:48;10.80;1.00
41939;DHT22;23057;48.554;14.454;2023-10-19T08:48:19;11.00;1.00
41939;DHT22;23057;48.554;14.454;2023-10-19T08:50:51;11.10;99.90
41939;DHT22;23057;48.554;14.454;2023-10-19T08:53:24;11.30;99.90
41939;DHT22;23057;48.554;14.454;2023-10-19T08:55:56;11.40;99.90
41939;DHT22;23057;48.554;14.454;2023-10-19T08:58:28;11.60;99.90
41939;DHT22;23057;48.554;14.454;2023-10-19T09:00:58;11.60;92.20
41939;DHT22;23057;48.554;14.454;2023-10-19T09:03:36;11.70;69.70
41939;DHT22;23057;48.554;14.454;2023-10-19T09:06:12;11.70;25.10
41939;DHT22;23057;48.554;14.454;2023-10-19T09:08:43;11.80;34.20
41939;DHT22;23057;48.554;14.454;2023-10-19T09:11:18;11.90;3.80
41939;DHT22;23057;48.554;14.454;2023-10-19T09:13:52;12.00;1.00
41939;DHT22;23057;48.554;14.454;2023-10-19T09:16:23;12.10;1.00
41939;DHT22;23057;48.554;14.454;2023-10-19T09:18:54;12.30;1.00
41939;DHT22;23057;48.554;14.454;2023-10-19T09:21:26;12.30;1.00
41939;DHT22;23057;48.554;14.454;2023-10-19T09:23:58;12.30;1.00
41939;DHT22;23057;48.554;14.454;2023-10-19T09:26:30;12.20;1.00
41939;DHT22;23057;48.554;14.454;2023-10-19T09:29:01;12.30;1.00
41939;DHT22;23057;48.554;14.454;2023-10-19T09:31:32;12.20;1.00
41939;DHT22;23057;48.554;14.454;2023-10-19T09:34:03;12.20;1.00
41939;DHT22;23057;48.554;14.454;2023-10-19T09:36:36;12.20;1.00
41939;DHT22;23057;48.554;14.454;2023-10-19T09:39:08;12.30;1.00
41939;DHT22;23057;48.554;14.454;2023-10-19T09:41:43;12.30;1.00
41939;DHT22;23057;48.554;14.454;2023-10-19T09:44:16;12.40;1.00
41939;DHT22;23057;48.554;14.454;2023-10-19T09:46:57;12.40;1.00
41939;DHT22;23057;48.554;14.454;2023-10-19T09:49:34;12.30;1.00
41939;DHT22;23057;48.554;14.454;2023-10-19T09:52:05;12.40;1.00
41939;DHT22;23057;48.554;14.454;2023-10-19T09:54:54;12.40;1.00
41939;DHT22;23057;48.554;14.454;2023-10-19T09:57:47;12.60;1.00
41939;DHT22;23057;48.554;14.454;2023-10-19T10:00:25;12.70;1.00
41939;DHT22;23057;48.554;14.454;2023-10-19T10:03:02;12.80;1.00
41939;DHT22;23057;48.554;14.454;2023-10-19T10:10:50;12.80;1.00
41939;DHT22;23057;48.554;14.454;2023-10-19T10:15:56;13.00;1.00
41939;DHT22;23057;48.554;14.454;2023-10-19T10:18:32;13.10;1.00
41939;DHT22;23057;48.554;14.454;2023-10-19T10:21:13;13.10;1.00
41939;DHT22;23057;48.554;14.454;2023-10-19T10:23:53;13.10;1.00
41939;DHT22;23057;48.554;14.454;2023-10-19T10:26:31;13.00;1.00
41939;DHT22;23057;48.554;14.454;2023-10-19T10:29:28;13.10;1.00
41939;DHT22;23057;48.554;14.454;2023-10-19T10:32:01;13.20;1.00
41939;DHT22;23057;48.554;14.454;2023-10-19T10:37:13;13.30;1.00
41939;DHT22;23057;48.554;14.454;2023-10-19T10:39:44;13.40;1.00
41939;DHT22;23057;48.554;14.454;2023-10-19T10:42:16;13.40;1.00
41939;DHT22;23057;48.554;14.454;2023-10-19T10:44:48;13.50;1.00
41939;DHT22;23057;48.554;14.454;2023-10-19T10:47:23;13.50;1.00
41939;DHT22;23057;48.554;14.454;2023-10-19T10:50:01;13.50;1.00
41939;DHT22;23057;48.554;14.454;2023-10-19T10:52:33;13.40;1.00
41939;DHT22;23057;48.554;14.454;2023-10-19T10:55:11;13.30;40.50
41939;DHT22;23057;48.554;14.454;2023-10-19T10:57:44;13.30;45.40
41939;DHT22;23057;48.554;14.454;2023-10-19T11:00:15;13.20;64.20
41939;DHT22;23057;48.554;14.454;2023-10-19T11:02:47;13.20;89.60
41939;DHT22;23057;48.554;14.454;2023-10-19T11:05:31;13.20;18.20
41939;DHT22;23057;48.554;14.454;2023-10-19T11:08:10;13.20;52.40
41939;DHT22;23057;48.554;14.454;2023-10-19T11:10:52;13.20;21.50
41939;DHT22;23057;48.554;14.454;2023-10-19T11:13:23;13.10;79.50
41939;DHT22;23057;48.554;14.454;2023-10-19T11:15:59;13.10;43.00
41939;DHT22;23057;48.554;14.454;2023-10-19T11:18:36;13.00;88.50
41939;DHT22;23057;48.554;14.454;2023-10-19T11:21:16;13.00;46.10
41939;DHT22;23057;48.554;14.454;2023-10-19T11:23:49;13.00;29.20
41939;DHT22;23057;48.554;14.454;2023-10-19T11:26:24;13.10;24.00
41939;DHT22;23057;48.554;14.454;2023-10-19T11:29:01;13.10;21.10
41939;DHT22;23057;48.554;14.454;2023-10-19T11:31:40;13.20;5.20
41939;DHT22;23057;48.554;14.454;2023-10-19T11:34:11;13.10;8.80
41939;DHT22;23057;48.554;14.454;2023-10-19T11:36:53;12.90;59.60
41939;DHT22;23057;48.554;14.454;2023-10-19T11:39:27;12.80;83.70
41939;DHT22;23057;48.554;14.454;2023-10-19T11:41:58;12.80;99.90
41939;DHT22;23057;48.554;14.454;2023-10-19T11:44:30;12.80;62.90
41939;DHT22;23057;48.554;14.454;2023-10-19T11:47:01;12.90;32.60
41939;DHT22;23057;48.554;14.454;2023-10-19T11:49:32;13.10;58.60
41939;DHT22;23057;48.554;14.454;2023-10-19T11:52:06;13.30;76.00
41939;DHT22;23057;48.554;14.454;2023-10-19T11:54:38;13.40;6.50
41939;DHT22;23057;48.554;14.454;2023-10-19T11:57:09;13.40;49.10
41939;DHT22;23057;48.554;14.454;2023-10-19T11:59:40;13.40;98.50
41939;DHT22;23057;48.554;14.454;2023-10-19T12:02:11;13.50;99.90
41939;DHT22;23057;48.554;14.454;2023-10-19T12:04:41;13.60;99.90
41939;DHT22;23057;48.554;14.454;2023-10-19T12:07:13;13.50;99.90
41939;DHT22;23057;48.554;14.454;2023-10-19T12:09:44;13.60;99.90
41939;DHT22;23057;48.554;14.454;2023-10-19T12:12:15;13.80;99.90
41939;DHT22;23057;48.554;14.454;2023-10-19T12:14:46;13.70;85.50
41939;DHT22;23057;48.554;14.454;2023-10-19T12:17:17;13.80;3.90
41939;DHT22;23057;48.554;14.454;2023-10-19T12:19:48;13.90;1.00
41939;DHT22;23057;48.554;14.454;2023-10-19T12:22:19;14.00;1.00
41939;DHT22;23057;48.554;14.454;2023-10-19T12:24:51;13.90;1.00
41939;DHT22;23057;48.554;14.454;2023-10-19T12:27:22;13.70;28.20
41939;DHT22;23057;48.554;14.454;2023-10-19T12:29:55;13.60;81.20
41939;DHT22;23057;48.554;14.454;2023-10-19T12:32:25;13.60;48.70
41939;DHT22;23057;48.554;14.454;2023-10-19T12:34:56;13.50;40.80
41939;DHT22;23057;48.554;14.454;2023-10-19T12:37:28;13.50;69.30
41939;DHT22;23057;48.554;14.454;2023-10-19T12:39:58;13.60;87.00
41939;DHT22;23057;48.554;14.454;2023-10-19T12:42:30;13.60;73.60
41939;DHT22;23057;48.554;14.454;2023-10-19T12:45:01;13.50;81.40
41939;DHT22;23057;48.554;14.454;2023-10-19T12:47:31;13.40;93.30
41939;DHT22;23057;48.554;14.454;2023-10-19T12:50:02;13.50;99.90
41939;DHT22;23057;48.554;14.454;2023-10-19T12:52:34;13.60;99.90
41939;DHT22;23057;48.554;14.454;2023-10-19T12:55:07;13.60;99.90
41939;DHT22;23057;48.554;14.454;2023-10-19T12:57:39;13.60;99.90
41939;DHT22;23057;48.554;14.454;2023-10-19T13:00:10;13.60;99.90
41939;DHT22;23057;48.554;14.454;2023-10-19T13:02:57;13.50;99.90
41939;DHT22;23057;48.554;14.454;2023-10-19T13:05:36;13.50;99.90
41939;DHT22;23057;48.554;14.454;2023-10-19T13:08:08;13.50;99.90
41939;DHT22;23057;48.554;14.454;2023-10-19T13:10:45;13.60;99.90
41939;DHT22;23057;48.554;14.454;2023-10-19T13:13:18;13.80;99.90
41939;DHT22;23057;48.554;14.454;2023-10-19T13:15:53;14.10;78.80
41939;DHT22;23057;48.554;14.454;2023-10-19T13:18:24;14.40;38.90
41939;DHT22;23057;48.554;14.454;2023-10-19T13:21:00;14.50;21.50
41939;DHT22;23057;48.554;14.454;2023-10-19T13:23:35;14.60;1.00
41939;DHT22;23057;48.554;14.454;2023-10-19T13:26:06;14.50;1.00
41939;DHT22;23057;48.554;14.454;2023-10-19T13:28:47;14.70;1.00
41939;DHT22;23057;48.554;14.454;2023-10-19T13:31:19;14.40;1.00
41939;DHT22;23057;48.554;14.454;2023-10-19T13:33:52;14.30;1.00
41939;DHT22;23057;48.554;14.454;2023-10-19T13:36:25;14.50;1.00
41939;DHT22;23057;48.554;14.454;2023-10-19T13:38:56;14.60;1.00
41939;DHT22;23057;48.554;14.454;2023-10-19T13:41:26;14.50;1.00
41939;DHT22;23057;48.554;14.454;2023-10-19T13:43:57;14.60;1.00
41939;DHT22;23057;48.554;14.454;2023-10-19T13:46:28;14.40;1.00
41939;DHT22;23057;48.554;14.454;2023-10-19T13:48:59;14.40;1.00
41939;DHT22;23057;48.554;14.454;2023-10-19T13:51:33;14.70;1.00
41939;DHT22;23057;48.554;14.454;2023-10-19T13:54:05;14.80;1.00
41939;DHT22;23057;48.554;14.454;2023-10-19T13:56:36;14.80;1.00
41939;DHT22;23057;48.554;14.454;2023-10-19T13:59:07;15.20;1.00
41939;DHT22;23057;48.554;14.454;2023-10-19T14:01:38;15.70;1.00
41939;DHT22;23057;48.554;14.454;2023-10-19T14:04:08;15.80;1.00
41939;DHT22;23057;48.554;14.454;2023-10-19T14:06:39;15.80;1.00
41939;DHT22;23057;48.554;14.454;2023-10-19T14:09:10;15.60;1.00
41939;DHT22;23057;48.554;14.454;2023-10-19T14:11:43;15.30;1.00
41939;DHT22;23057;48.554;14.454;2023-10-19T14:14:17;15.20;1.00
41939;DHT22;23057;48.554;14.454;2023-10-19T14:16:48;15.20;1.00
41939;DHT22;23057;48.554;14.454;2023-10-19T14:19:20;15.20;1.00
41939;DHT22;23057;48.554;14.454;2023-10-19T14:21:51;15.30;1.00
41939;DHT22;23057;48.554;14.454;2023-10-19T14:24:22;15.60;1.00
41939;DHT22;23057;48.554;14.454;2023-10-19T14:26:54;15.70;1.00
41939;DHT22;23057;48.554;14.454;2023-10-19T14:29:25;15.70;1.00
41939;DHT22;23057;48.554;14.454;2023-10-19T14:31:56;15.80;1.00
41939;DHT22;23057;48.554;14.454;2023-10-19T14:34:26;15.70;1.00
41939;DHT22;23057;48.554;14.454;2023-10-19T14:36:58;15.70;1.00
41939;DHT22;23057;48.554;14.454;2023-10-19T14:39:28;15.70;1.00
41939;DHT22;23057;48.554;14.454;2023-10-19T14:41:59;15.60;1.00
41939;DHT22;23057;48.554;14.454;2023-10-19T14:44:31;15.40;1.00
41939;DHT22;23057;48.554;14.454;2023-10-19T14:47:01;15.20;1.00
41939;DHT22;23057;48.554;14.454;2023-10-19T14:49:34;15.00;1.00
41939;DHT22;23057;48.554;14.454;2023-10-19T14:52:05;14.90;1.00
41939;DHT22;23057;48.554;14.454;2023-10-19T14:54:36;14.90;1.00
41939;DHT22;23057;48.554;14.454;2023-10-19T14:57:07;14.90;1.00
41939;DHT22;23057;48.554;14.454;2023-10-19T14:59:38;14.90;1.00
41939;DHT22;23057;48.554;14.454;2023-10-19T15:02:09;14.80;1.00
41939;DHT22;23057;48.554;14.454;2023-10-19T15:04:45;14.70;1.00
41939;DHT22;23057;48.554;14.454;2023-10-19T15:07:16;14.70;1.00
41939;DHT22;23057;48.554;14.454;2023-10-19T15:09:48;14.60;1.00
41939;DHT22;23057;48.554;14.454;2023-10-19T15:12:19;14.80;1.00
41939;DHT22;23057;48.554;14.454;2023-10-19T15:14:49;14.90;1.00
41939;DHT22;23057;48.554;14.454;2023-10-19T15:17:20;14.70;1.00
41939;DHT22;23057;48.554;14.454;2023-10-19T15:19:52;14.70;1.00
41939;DHT22;23057;48.554;14.454;2023-10-19T15:22:23;14.60;1.00
41939;DHT22;23057;48.554;14.454;2023-10-19T15:24:54;14.60;1.00
41939;DHT22;23057;48.554;14.454;2023-10-19T15:27:25;14.60;1.00
41939;DHT22;23057;48.554;14.454;2023-10-19T15:29:56;14.60;1.00
41939;DHT22;23057;48.554;14.454;2023-10-19T15:32:28;14.50;1.00
41939;DHT22;23057;48.554;14.454;2023-10-19T15:35:01;14.40;1.00
41939;DHT22;23057;48.554;14.454;2023-10-19T15:37:33;14.20;4.80
41939;DHT22;23057;48.554;14.454;2023-10-19T15:40:04;14.10;19.10
41939;DHT22;23057;48.554;14.454;2023-10-19T15:42:35;14.00;28.30
41939;DHT22;23057;48.554;14.454;2023-10-19T15:45:12;14.00;62.70
41939;DHT22;23057;48.554;14.454;2023-10-19T15:47:45;13.90;99.90
41939;DHT22;23057;48.554;14.454;2023-10-19T15:50:17;13.80;99.90
41939;DHT22;23057;48.554;14.454;2023-10-19T15:52:48;13.80;99.90
41939;DHT22;23057;48.554;14.454;2023-10-19T15:55:21;13.70;99.90
41939;DHT22;23057;48.554;14.454;2023-10-19T15:57:52;13.60;99.90
41939;DHT22;23057;48.554;14.454;2023-10-19T16:00:24;13.40;99.90
41939;DHT22;23057;48.554;14.454;2023-10-19T16:02:55;13.30;99.90
41939;DHT22;23057;48.554;14.454;2023-10-19T16:05:26;13.20;99.90
41939;DHT22;23057;48.554;14.454;2023-10-19T16:07:57;13.20;99.90
41939;DHT22;23057;48.554;14.454;2023-10-19T16:10:28;13.20;99.90
41939;DHT22;23057;48.554;14.454;2023-10-19T16:12:58;12.90;1.00
41939;DHT22;23057;48.554;14.454;2023-10-19T16:15:29;12.50;99.90